Printer image icon. Send To Printer
           

                RAOB DATA MANUAL QUALITY CONTROL (QC) REPORT
                                  MEXICAN
                       From 20170401 through 20170430

 ___DATE___ HOUR REASN DETAILS...

76225/CUU
   20170409  00Z 10158 10158; Flight equip problems..
   20170411  00Z 10158 10158...Flight equipment failure
   20170412  00Z 10158 10158...Flight equipment failure
   20170413  00Z 10158 10158...Flight equipment failure
   20170414  00Z 10158 10158...Flight equipment failure.
   20170416  00Z 10158 10158
   20170427  00Z SHORT Short to 508 mb

7 records found

76256/GYM
   20170411  12Z SHORT Short to 925mb
   20170425  12Z 10142 10142; Ground equip problems..
   20170425  12Z 10159 10159..not available..
   20170427  12Z 10142 10142...Ground equipment failure

4 records found

76394/MTY
   20170402  12Z DELET Purge temps and humidity 854 to 850mb and 230mb up 
                       super adiabatic lapse rate and erratic..
   20170408  12Z DELET Purged temps 874-833 mb...wet bulb effect
   20170417  12Z DELET Purged temps/moisture 785-778 mb...super-adiabatic 
                       lapse rate
   20170419  12Z SHORT Short to 640 mb
   20170423  12Z DELET Purged 960mb winds...too strong...purged 
                       temps/moisture 691-637mb...wet bulb effect
   20170426  12Z 10142 10142; ground equip problems..

6 records found

76405/LAP
   20170401  12Z 10159 10159; Not available..
   20170403  12Z 10159 10159
   20170404  12Z 10159 10159
   20170405  12Z 10159 10159
   20170406  12Z 10159 10159
   20170407  12Z 10159 10159
   20170408  12Z 10159 10159
   20170409  12Z 10159 10159
   20170410  12Z 10159 10159
   20170411  12Z 10159 10159
   20170412  12Z 10159 10159
   20170413  12Z 10159 10159
   20170414  12Z 10159 10159
   20170415  12Z 10159 10159
   20170416  00Z 10158 10158
   20170416  12Z 10159 10159.
   20170417  00Z 10158 10158
   20170417  12Z 10159 10159...Unavailable
   20170418  12Z 10159 10159...Unavailable
   20170419  12Z 10159 10159...Unavailable
   20170420  12Z 10159 10159
   20170421  12Z 10159 10159
   20170422  12Z 10159 10159
   20170423  12Z 10159 10159
   20170424  12Z 10159 10159; Not available..
   20170425  12Z 10159 10159..not available..
   20170426  12Z 10159 10159; Not available..
   20170427  12Z 10159 10159...Unavailable
   20170428  12Z 10159 10159...Unavailable
   20170429  12Z 10159 10159...Unavailable
   20170430  12Z 10159 10159...Unavailable

31 records found

76458/MZT
   20170401  00Z 10159 10159
   20170402  00Z 10159 10159...Unavailable
   20170403  00Z 10159 10159...Not available
   20170404  00Z 10159 10159
   20170405  00Z 10159 10159
   20170406  00Z 10159 10159
   20170408  00Z 10159 10159
   20170409  00Z 10158 10158; Flight equip problems..
   20170410  00Z 10159 10159; Not available..
   20170411  00Z 10159 10159...Unavailable
   20170412  00Z 10159 10159...Unavailable
   20170413  00Z 10159 10159...Unavailable
   20170414  00Z 10159 10159.
   20170415  00Z 10159 10159.
   20170416  00Z 10159 10159
   20170417  00Z 10159 10159
   20170418  00Z 10159 10159
   20170419  00Z 10159 10159
   20170423  12Z DELET Purged all hgts...baseline error
                 BASEL
   20170425  12Z 10142 10142; Ground equip problems..
   20170426  12Z 10142 10142; ground equip problems..
   20170429  00Z 10159 10159..Not available..
   20170429  12Z DELET Purged temps/moisture at 924 mb, and 880-865mb... 
                       super-adiabatic lapse rate
   20170430  00Z 10159 10159

24 records found

76526/ZAC
   20170403  00Z DELET Purged temps/moisture 763-759 mb, 199-197mb... 
                       super-adiabatic lapse rate
   20170413  00Z DELET Purged temps/moisture 776-652 mb...super-adiabatic 
                       lapse rate

2 records found

76595/CUN
   20170405  00Z DELET Purged all hgts...baseline error
                 BASEL
   20170408  00Z DELET Purged temp/rh 701 695 mb...super-adiabatic
   20170428  00Z DELET Purge temps and humidity 136mb up super adiabatic 
                       lapse rate..

3 records found

76612/GDL
   20170423  12Z DELET Purged report...twin code report

1 record found

76644/MID
   20170402  12Z SHORT Short to 512mb..
   20170404  00Z SHORT Short to 547mb
   20170406  00Z SHORT Short to 731mb
   20170415  00Z DELET Purged temps/moisture 601-569mb...wet bulb effect.
   20170429  12Z 10159 10159...Unavailable

5 records found

76654/MZL
   20170401  12Z 10158 10158; Flight equip problem..
   20170403  12Z 10158 10158...flight equipment failure
   20170404  12Z 10158 10158...flight equipment failure
   20170405  12Z 10158 10158...flight equipment failures
   20170406  12Z 10158 10158
   20170407  12Z 10158 10158
   20170410  12Z 10158 10158
   20170411  12Z 10158 10158
   20170412  12Z 10158 10158
   20170413  12Z 10158 10158...flight equipment failure
   20170414  12Z 10158 10158...flight equipment failure
   20170415  12Z 10158 10158...flight equipment failure
   20170416  00Z 10142 10142
   20170416  12Z 10158 10158...Flight equipment failure.
   20170417  00Z 10142 10142
   20170417  12Z 10158 10158...Flight equipment failure
   20170418  00Z 10142 10142...ground equipment failure
   20170419  12Z 10158 10158...Flight equipment failure
   20170420  12Z 10158 10158
   20170421  00Z 10158 10158...Flight equipment failure
   20170421  12Z 10158 10158
   20170422  12Z 10158 10158
   20170423  00Z 10159 10159.
   20170423  12Z 10158 10158
   20170424  12Z 10158 10158; Flight equipment problems..


   20170425  12Z 10158 10158; Flight equip problems..
   20170426  12Z 10158 10158; Flight equip problems..
   20170427  12Z 10158 10158...Flight equipment failure
   20170428  12Z 10158 10158...Flight equipment failure
   20170429  12Z 10158 10158...Flight equipment failure
   20170430  12Z 10158 10158...Flight equipment failure

31 records found

76679/MEX
   20170410  00Z SHORT Short to 434mb..
   20170420  12Z DELET Purged hgts/temps 186mb and up..

2 records found

76692/HYY
   20170401  00Z 10158 10158
   20170402  00Z 10158 10158...Flight equipment failure
   20170403  00Z 10158 10158...Flight equipment failure
   20170404  00Z 10158 10158
   20170405  00Z 10158 10158
   20170406  00Z 10158 10158
   20170407  00Z 10158 10158...Flight equipment failure.
   20170408  00Z 10158 10158...flight equipment failure
   20170409  00Z 10158 10158; Flight equip problems..
   20170410  00Z 10158 10158; Flight equip problems..
   20170410  12Z DELET Purged temps/moisture 771-615mb...wet bulb effect
   20170411  00Z 10158 10158...Flight equipment failure
   20170412  00Z 10158 10158...Flight equipment failure
   20170413  00Z 10158 10158...Flight equipment failure
   20170413  12Z 10159 10159
   20170414  00Z 10158 10158...Flight equipment failure.
   20170415  00Z 10158 10158...Flight equipment failure.
   20170416  00Z 10158 10158
   20170417  00Z 10158 10158
   20170418  12Z DELET Purged temps/moisture 859-857 mb, 844-839mb... 
                       super-adiabatic lapse rate
   20170421  00Z 10158 10158...Flight equipment failure
   20170422  00Z 10158 10158...Flight equipment failure
   20170423  00Z 10158 10158.
   20170424  00Z 10158 10158.
   20170425  00Z 10158 10158
   20170426  00Z 10158 10158
   20170427  00Z 10158 10158
   20170428  00Z 10158 10158; Flight equip problems..
   20170429  00Z 10158 10158..Flight equip problem..
   20170430  00Z 10158 10158

30 records found




76743/VHA
   20170401  00Z SHORT Short to 813 mb
   20170416  00Z SHORT Short to 416 mb
   20170428  00Z SHORT Short to 742mb..

3 records found

76805/ACA
   20170427  12Z 10142 10142...Ground equipment failure
   20170428  12Z 10142 10142...Ground equipment failure

2 records found



SELECTED STATIONS WITH NO SDM QC:
  76903/TAP




This and related reports are available on the Web at . . .
http://www.nco.ncep.noaa.gov/sib/qap/raobqc/